sensor_id;sensor_type;location;lat;lon;timestamp;P1;durP1;ratioP1;P2;durP2;ratioP2
50309;SDS011;36207;51.850;21.698;2023-07-31T00:01:05;7.20;;;4.90;;
50309;SDS011;36207;51.850;21.698;2023-07-31T00:03:31;5.90;;;4.90;;
50309;SDS011;36207;51.850;21.698;2023-07-31T00:05:57;7.10;;;4.30;;
50309;SDS011;36207;51.850;21.698;2023-07-31T00:08:23;7.10;;;4.40;;
50309;SDS011;36207;51.850;21.698;2023-07-31T00:10:51;7.40;;;4.80;;
50309;SDS011;36207;51.850;21.698;2023-07-31T00:13:18;6.20;;;4.70;;
50309;SDS011;36207;51.850;21.698;2023-07-31T00:15:44;6.70;;;4.40;;
50309;SDS011;36207;51.850;21.698;2023-07-31T00:18:10;6.10;;;4.60;;
50309;SDS011;36207;51.850;21.698;2023-07-31T00:20:36;6.30;;;4.50;;
50309;SDS011;36207;51.850;21.698;2023-07-31T00:23:02;6.80;;;4.90;;
50309;SDS011;36207;51.850;21.698;2023-07-31T00:25:28;7.40;;;4.80;;
50309;SDS011;36207;51.850;21.698;2023-07-31T00:27:54;6.10;;;4.90;;
50309;SDS011;36207;51.850;21.698;2023-07-31T00:30:20;7.30;;;4.90;;
50309;SDS011;36207;51.850;21.698;2023-07-31T00:32:48;7.40;;;4.70;;
50309;SDS011;36207;51.850;21.698;2023-07-31T00:35:14;6.80;;;4.50;;
50309;SDS011;36207;51.850;21.698;2023-07-31T00:37:40;5.70;;;4.50;;
50309;SDS011;36207;51.850;21.698;2023-07-31T00:40:06;4.80;;;4.20;;
50309;SDS011;36207;51.850;21.698;2023-07-31T00:42:33;5.70;;;4.50;;
50309;SDS011;36207;51.850;21.698;2023-07-31T00:44:59;6.30;;;4.40;;
50309;SDS011;36207;51.850;21.698;2023-07-31T00:47:25;6.60;;;4.90;;
50309;SDS011;36207;51.850;21.698;2023-07-31T00:49:52;7.90;;;4.60;;
50309;SDS011;36207;51.850;21.698;2023-07-31T00:52:18;5.20;;;4.60;;
50309;SDS011;36207;51.850;21.698;2023-07-31T00:54:45;5.40;;;4.50;;
50309;SDS011;36207;51.850;21.698;2023-07-31T00:57:11;6.40;;;4.80;;
50309;SDS011;36207;51.850;21.698;2023-07-31T00:59:38;7.10;;;4.60;;
50309;SDS011;36207;51.850;21.698;2023-07-31T01:02:04;8.30;;;4.70;;
50309;SDS011;36207;51.850;21.698;2023-07-31T01:04:31;8.00;;;4.70;;
50309;SDS011;36207;51.850;21.698;2023-07-31T01:12:59;6.10;;;4.60;;
50309;SDS011;36207;51.850;21.698;2023-07-31T01:15:26;6.30;;;4.70;;
50309;SDS011;36207;51.850;21.698;2023-07-31T01:17:52;5.90;;;4.60;;
50309;SDS011;36207;51.850;21.698;2023-07-31T01:20:20;6.90;;;4.80;;
50309;SDS011;36207;51.850;21.698;2023-07-31T01:26:08;8.00;;;4.60;;
50309;SDS011;36207;51.850;21.698;2023-07-31T01:31:09;5.60;;;4.30;;
50309;SDS011;36207;51.850;21.698;2023-07-31T01:33:39;8.80;;;4.50;;
50309;SDS011;36207;51.850;21.698;2023-07-31T01:36:06;5.70;;;4.60;;
50309;SDS011;36207;51.850;21.698;2023-07-31T01:38:33;8.00;;;4.50;;
50309;SDS011;36207;51.850;21.698;2023-07-31T01:40:59;5.80;;;4.50;;
50309;SDS011;36207;51.850;21.698;2023-07-31T01:43:25;5.20;;;4.10;;
50309;SDS011;36207;51.850;21.698;2023-07-31T01:45:51;5.70;;;4.40;;
50309;SDS011;36207;51.850;21.698;2023-07-31T01:48:17;5.60;;;4.40;;
50309;SDS011;36207;51.850;21.698;2023-07-31T01:50:43;7.10;;;4.60;;
50309;SDS011;36207;51.850;21.698;2023-07-31T01:53:09;6.40;;;4.40;;
50309;SDS011;36207;51.850;21.698;2023-07-31T01:55:37;7.70;;;4.40;;
50309;SDS011;36207;51.850;21.698;2023-07-31T01:58:03;6.60;;;4.50;;
50309;SDS011;36207;51.850;21.698;2023-07-31T02:00:29;5.90;;;4.20;;
50309;SDS011;36207;51.850;21.698;2023-07-31T02:02:55;5.60;;;4.00;;
50309;SDS011;36207;51.850;21.698;2023-07-31T02:05:21;4.50;;;3.80;;
50309;SDS011;36207;51.850;21.698;2023-07-31T02:07:48;6.20;;;4.10;;
50309;SDS011;36207;51.850;21.698;2023-07-31T02:10:14;4.60;;;4.10;;
50309;SDS011;36207;51.850;21.698;2023-07-31T02:12:40;5.30;;;4.50;;
50309;SDS011;36207;51.850;21.698;2023-07-31T02:15:06;5.90;;;4.40;;
50309;SDS011;36207;51.850;21.698;2023-07-31T02:17:33;5.50;;;4.50;;
50309;SDS011;36207;51.850;21.698;2023-07-31T02:19:58;4.90;;;4.20;;
50309;SDS011;36207;51.850;21.698;2023-07-31T02:22:25;10.70;;;4.80;;
50309;SDS011;36207;51.850;21.698;2023-07-31T02:24:51;8.10;;;4.60;;
50309;SDS011;36207;51.850;21.698;2023-07-31T02:27:17;5.60;;;4.50;;
50309;SDS011;36207;51.850;21.698;2023-07-31T02:29:43;9.00;;;4.70;;
50309;SDS011;36207;51.850;21.698;2023-07-31T02:32:09;7.30;;;4.60;;
50309;SDS011;36207;51.850;21.698;2023-07-31T02:34:35;7.70;;;5.00;;
50309;SDS011;36207;51.850;21.698;2023-07-31T02:37:01;6.70;;;4.90;;
50309;SDS011;36207;51.850;21.698;2023-07-31T02:39:27;5.70;;;4.60;;
50309;SDS011;36207;51.850;21.698;2023-07-31T02:41:53;7.00;;;4.60;;
50309;SDS011;36207;51.850;21.698;2023-07-31T02:44:19;6.50;;;4.60;;
50309;SDS011;36207;51.850;21.698;2023-07-31T02:46:47;6.00;;;4.70;;
50309;SDS011;36207;51.850;21.698;2023-07-31T02:49:13;7.10;;;4.60;;
50309;SDS011;36207;51.850;21.698;2023-07-31T02:51:39;7.80;;;4.50;;
50309;SDS011;36207;51.850;21.698;2023-07-31T02:54:05;6.20;;;4.50;;
50309;SDS011;36207;51.850;21.698;2023-07-31T02:56:31;5.90;;;4.10;;
50309;SDS011;36207;51.850;21.698;2023-07-31T02:58:57;7.00;;;4.30;;
50309;SDS011;36207;51.850;21.698;2023-07-31T03:01:23;6.30;;;4.30;;
50309;SDS011;36207;51.850;21.698;2023-07-31T03:03:49;7.00;;;4.20;;
50309;SDS011;36207;51.850;21.698;2023-07-31T03:06:15;5.70;;;4.20;;
50309;SDS011;36207;51.850;21.698;2023-07-31T03:08:41;6.80;;;4.10;;
50309;SDS011;36207;51.850;21.698;2023-07-31T03:11:07;5.50;;;4.40;;
50309;SDS011;36207;51.850;21.698;2023-07-31T03:13:32;6.30;;;4.70;;
50309;SDS011;36207;51.850;21.698;2023-07-31T03:15:58;6.00;;;4.40;;
50309;SDS011;36207;51.850;21.698;2023-07-31T03:18:24;6.00;;;4.50;;
50309;SDS011;36207;51.850;21.698;2023-07-31T03:20:50;6.60;;;4.60;;
50309;SDS011;36207;51.850;21.698;2023-07-31T03:23:16;6.70;;;4.60;;
50309;SDS011;36207;51.850;21.698;2023-07-31T03:25:54;8.20;;;4.60;;
50309;SDS011;36207;51.850;21.698;2023-07-31T03:28:22;7.60;;;4.50;;
50309;SDS011;36207;51.850;21.698;2023-07-31T03:30:48;5.90;;;4.40;;
50309;SDS011;36207;51.850;21.698;2023-07-31T03:33:14;5.50;;;4.50;;
50309;SDS011;36207;51.850;21.698;2023-07-31T03:35:40;5.60;;;4.00;;
50309;SDS011;36207;51.850;21.698;2023-07-31T03:38:06;7.00;;;4.20;;
50309;SDS011;36207;51.850;21.698;2023-07-31T03:40:32;5.70;;;4.20;;
50309;SDS011;36207;51.850;21.698;2023-07-31T03:42:58;6.00;;;4.00;;
50309;SDS011;36207;51.850;21.698;2023-07-31T03:45:24;5.40;;;4.30;;
50309;SDS011;36207;51.850;21.698;2023-07-31T03:47:50;4.50;;;3.90;;
50309;SDS011;36207;51.850;21.698;2023-07-31T03:50:16;6.60;;;4.40;;
50309;SDS011;36207;51.850;21.698;2023-07-31T03:52:42;8.60;;;4.30;;
50309;SDS011;36207;51.850;21.698;2023-07-31T03:55:08;6.30;;;4.50;;
50309;SDS011;36207;51.850;21.698;2023-07-31T03:57:34;6.60;;;4.40;;
50309;SDS011;36207;51.850;21.698;2023-07-31T04:00:00;5.30;;;4.20;;
50309;SDS011;36207;51.850;21.698;2023-07-31T04:02:26;7.30;;;4.10;;
50309;SDS011;36207;51.850;21.698;2023-07-31T04:04:52;4.40;;;3.70;;
50309;SDS011;36207;51.850;21.698;2023-07-31T04:07:18;8.00;;;4.40;;
50309;SDS011;36207;51.850;21.698;2023-07-31T04:09:44;6.80;;;4.30;;
50309;SDS011;36207;51.850;21.698;2023-07-31T04:12:10;6.00;;;4.10;;
50309;SDS011;36207;51.850;21.698;2023-07-31T04:14:36;6.40;;;4.10;;
50309;SDS011;36207;51.850;21.698;2023-07-31T04:17:02;7.50;;;4.20;;
50309;SDS011;36207;51.850;21.698;2023-07-31T04:19:28;7.10;;;4.20;;
50309;SDS011;36207;51.850;21.698;2023-07-31T04:21:55;8.00;;;3.90;;
50309;SDS011;36207;51.850;21.698;2023-07-31T04:24:21;6.20;;;3.90;;
50309;SDS011;36207;51.850;21.698;2023-07-31T04:26:50;6.10;;;4.10;;
50309;SDS011;36207;51.850;21.698;2023-07-31T04:29:17;4.80;;;4.00;;
50309;SDS011;36207;51.850;21.698;2023-07-31T04:31:43;6.20;;;3.80;;
50309;SDS011;36207;51.850;21.698;2023-07-31T04:34:09;7.80;;;4.10;;
50309;SDS011;36207;51.850;21.698;2023-07-31T04:36:37;6.40;;;4.00;;
50309;SDS011;36207;51.850;21.698;2023-07-31T04:39:03;8.50;;;3.90;;
50309;SDS011;36207;51.850;21.698;2023-07-31T04:41:29;7.50;;;4.30;;
50309;SDS011;36207;51.850;21.698;2023-07-31T04:43:55;4.80;;;4.00;;
50309;SDS011;36207;51.850;21.698;2023-07-31T04:46:21;5.30;;;3.80;;
50309;SDS011;36207;51.850;21.698;2023-07-31T04:48:47;6.60;;;3.90;;
50309;SDS011;36207;51.850;21.698;2023-07-31T04:51:13;6.60;;;4.00;;
50309;SDS011;36207;51.850;21.698;2023-07-31T04:53:39;5.60;;;3.70;;
50309;SDS011;36207;51.850;21.698;2023-07-31T04:56:05;6.80;;;3.90;;
50309;SDS011;36207;51.850;21.698;2023-07-31T04:58:31;6.80;;;4.10;;
50309;SDS011;36207;51.850;21.698;2023-07-31T05:00:57;4.40;;;3.70;;
50309;SDS011;36207;51.850;21.698;2023-07-31T05:03:23;6.70;;;4.00;;
50309;SDS011;36207;51.850;21.698;2023-07-31T05:05:49;7.50;;;4.10;;
50309;SDS011;36207;51.850;21.698;2023-07-31T05:08:16;8.20;;;3.90;;
50309;SDS011;36207;51.850;21.698;2023-07-31T05:10:43;6.20;;;3.90;;
50309;SDS011;36207;51.850;21.698;2023-07-31T05:13:09;6.50;;;3.90;;
50309;SDS011;36207;51.850;21.698;2023-07-31T05:15:35;5.50;;;3.50;;
50309;SDS011;36207;51.850;21.698;2023-07-31T05:18:01;4.60;;;3.80;;
50309;SDS011;36207;51.850;21.698;2023-07-31T05:20:27;6.50;;;3.90;;
50309;SDS011;36207;51.850;21.698;2023-07-31T05:22:53;5.70;;;3.80;;
50309;SDS011;36207;51.850;21.698;2023-07-31T05:25:19;6.50;;;3.70;;
50309;SDS011;36207;51.850;21.698;2023-07-31T05:27:45;5.70;;;3.70;;
50309;SDS011;36207;51.850;21.698;2023-07-31T05:30:11;9.20;;;4.00;;
50309;SDS011;36207;51.850;21.698;2023-07-31T05:32:37;6.30;;;3.90;;
50309;SDS011;36207;51.850;21.698;2023-07-31T05:35:03;6.70;;;3.80;;
50309;SDS011;36207;51.850;21.698;2023-07-31T05:37:30;7.50;;;3.70;;
50309;SDS011;36207;51.850;21.698;2023-07-31T05:39:57;4.50;;;3.50;;
50309;SDS011;36207;51.850;21.698;2023-07-31T05:42:23;11.80;;;3.80;;
50309;SDS011;36207;51.850;21.698;2023-07-31T05:44:49;7.30;;;3.60;;
50309;SDS011;36207;51.850;21.698;2023-07-31T05:47:15;5.90;;;3.70;;
50309;SDS011;36207;51.850;21.698;2023-07-31T05:49:41;4.70;;;3.60;;
50309;SDS011;36207;51.850;21.698;2023-07-31T05:52:08;4.80;;;3.70;;
50309;SDS011;36207;51.850;21.698;2023-07-31T05:54:34;4.90;;;3.50;;
50309;SDS011;36207;51.850;21.698;2023-07-31T05:57:00;5.50;;;3.40;;
50309;SDS011;36207;51.850;21.698;2023-07-31T05:59:26;5.50;;;3.30;;
50309;SDS011;36207;51.850;21.698;2023-07-31T06:01:52;7.90;;;3.50;;
50309;SDS011;36207;51.850;21.698;2023-07-31T06:04:18;6.70;;;3.50;;
50309;SDS011;36207;51.850;21.698;2023-07-31T06:06:44;6.00;;;3.60;;
50309;SDS011;36207;51.850;21.698;2023-07-31T06:09:10;6.30;;;3.30;;
50309;SDS011;36207;51.850;21.698;2023-07-31T06:11:37;5.80;;;3.50;;
50309;SDS011;36207;51.850;21.698;2023-07-31T06:14:03;6.00;;;3.20;;
50309;SDS011;36207;51.850;21.698;2023-07-31T06:16:29;5.50;;;3.30;;
50309;SDS011;36207;51.850;21.698;2023-07-31T06:18:55;6.00;;;3.30;;
50309;SDS011;36207;51.850;21.698;2023-07-31T06:21:21;5.10;;;3.20;;
50309;SDS011;36207;51.850;21.698;2023-07-31T06:23:47;6.50;;;3.20;;
50309;SDS011;36207;51.850;21.698;2023-07-31T06:26:13;5.20;;;3.40;;
50309;SDS011;36207;51.850;21.698;2023-07-31T06:28:39;5.10;;;3.30;;
50309;SDS011;36207;51.850;21.698;2023-07-31T06:31:05;5.50;;;3.40;;
50309;SDS011;36207;51.850;21.698;2023-07-31T06:33:31;6.80;;;3.30;;
50309;SDS011;36207;51.850;21.698;2023-07-31T06:35:57;7.50;;;3.40;;
50309;SDS011;36207;51.850;21.698;2023-07-31T06:38:27;4.50;;;3.20;;
50309;SDS011;36207;51.850;21.698;2023-07-31T06:40:53;8.00;;;3.20;;
50309;SDS011;36207;51.850;21.698;2023-07-31T06:43:19;5.00;;;3.40;;
50309;SDS011;36207;51.850;21.698;2023-07-31T06:45:45;4.50;;;3.30;;
50309;SDS011;36207;51.850;21.698;2023-07-31T06:48:12;5.00;;;3.50;;
50309;SDS011;36207;51.850;21.698;2023-07-31T06:50:38;7.00;;;3.40;;
50309;SDS011;36207;51.850;21.698;2023-07-31T06:53:04;6.10;;;3.70;;
50309;SDS011;36207;51.850;21.698;2023-07-31T06:55:30;5.10;;;3.40;;
50309;SDS011;36207;51.850;21.698;2023-07-31T06:57:56;5.50;;;3.10;;
50309;SDS011;36207;51.850;21.698;2023-07-31T07:00:23;6.60;;;3.60;;
50309;SDS011;36207;51.850;21.698;2023-07-31T07:02:49;6.80;;;3.50;;
50309;SDS011;36207;51.850;21.698;2023-07-31T07:05:16;5.90;;;3.10;;
50309;SDS011;36207;51.850;21.698;2023-07-31T07:07:43;5.90;;;3.50;;
50309;SDS011;36207;51.850;21.698;2023-07-31T07:10:09;6.50;;;3.40;;
50309;SDS011;36207;51.850;21.698;2023-07-31T07:12:35;4.30;;;3.10;;
50309;SDS011;36207;51.850;21.698;2023-07-31T07:15:02;5.00;;;3.20;;
50309;SDS011;36207;51.850;21.698;2023-07-31T07:17:29;4.60;;;3.10;;
50309;SDS011;36207;51.850;21.698;2023-07-31T07:19:59;5.90;;;3.20;;
50309;SDS011;36207;51.850;21.698;2023-07-31T07:22:26;4.40;;;3.30;;
50309;SDS011;36207;51.850;21.698;2023-07-31T07:24:53;6.20;;;3.10;;
50309;SDS011;36207;51.850;21.698;2023-07-31T07:27:19;6.60;;;3.40;;
50309;SDS011;36207;51.850;21.698;2023-07-31T07:29:45;6.10;;;3.40;;
50309;SDS011;36207;51.850;21.698;2023-07-31T07:32:12;5.60;;;2.70;;
50309;SDS011;36207;51.850;21.698;2023-07-31T07:34:38;3.30;;;2.60;;
50309;SDS011;36207;51.850;21.698;2023-07-31T07:37:05;7.80;;;3.30;;
50309;SDS011;36207;51.850;21.698;2023-07-31T07:39:31;5.90;;;3.10;;
50309;SDS011;36207;51.850;21.698;2023-07-31T07:41:57;4.20;;;2.90;;
50309;SDS011;36207;51.850;21.698;2023-07-31T07:44:23;6.00;;;3.00;;
50309;SDS011;36207;51.850;21.698;2023-07-31T07:46:49;5.30;;;3.10;;
50309;SDS011;36207;51.850;21.698;2023-07-31T07:49:15;5.50;;;3.30;;
50309;SDS011;36207;51.850;21.698;2023-07-31T07:51:41;5.50;;;3.20;;
50309;SDS011;36207;51.850;21.698;2023-07-31T07:54:07;6.20;;;3.10;;
50309;SDS011;36207;51.850;21.698;2023-07-31T07:56:33;7.70;;;3.10;;
50309;SDS011;36207;51.850;21.698;2023-07-31T07:58:59;8.70;;;3.10;;
50309;SDS011;36207;51.850;21.698;2023-07-31T08:01:25;5.20;;;3.10;;
50309;SDS011;36207;51.850;21.698;2023-07-31T08:03:51;4.60;;;3.20;;
50309;SDS011;36207;51.850;21.698;2023-07-31T08:06:17;4.50;;;2.90;;
50309;SDS011;36207;51.850;21.698;2023-07-31T08:08:43;4.40;;;2.80;;
50309;SDS011;36207;51.850;21.698;2023-07-31T08:11:09;4.50;;;3.00;;
50309;SDS011;36207;51.850;21.698;2023-07-31T08:13:35;7.90;;;3.20;;
50309;SDS011;36207;51.850;21.698;2023-07-31T08:16:04;6.30;;;3.30;;
50309;SDS011;36207;51.850;21.698;2023-07-31T08:18:31;5.30;;;3.00;;
50309;SDS011;36207;51.850;21.698;2023-07-31T08:20:58;8.90;;;3.20;;
50309;SDS011;36207;51.850;21.698;2023-07-31T08:23:24;5.50;;;3.10;;
50309;SDS011;36207;51.850;21.698;2023-07-31T08:25:50;4.00;;;3.40;;
50309;SDS011;36207;51.850;21.698;2023-07-31T08:28:16;4.60;;;3.30;;
50309;SDS011;36207;51.850;21.698;2023-07-31T08:30:42;7.20;;;3.20;;
50309;SDS011;36207;51.850;21.698;2023-07-31T08:33:08;5.30;;;3.20;;
50309;SDS011;36207;51.850;21.698;2023-07-31T08:35:34;4.40;;;3.00;;
50309;SDS011;36207;51.850;21.698;2023-07-31T08:38:00;5.00;;;2.70;;
50309;SDS011;36207;51.850;21.698;2023-07-31T08:40:26;4.90;;;3.10;;
50309;SDS011;36207;51.850;21.698;2023-07-31T08:42:54;4.80;;;3.10;;
50309;SDS011;36207;51.850;21.698;2023-07-31T08:45:28;6.10;;;3.00;;
50309;SDS011;36207;51.850;21.698;2023-07-31T08:47:55;7.70;;;3.10;;
50309;SDS011;36207;51.850;21.698;2023-07-31T08:50:22;6.80;;;3.00;;
50309;SDS011;36207;51.850;21.698;2023-07-31T08:52:50;5.80;;;3.00;;
50309;SDS011;36207;51.850;21.698;2023-07-31T08:55:17;5.60;;;2.60;;
50309;SDS011;36207;51.850;21.698;2023-07-31T08:57:50;4.40;;;2.90;;
50309;SDS011;36207;51.850;21.698;2023-07-31T09:00:18;6.90;;;3.10;;
50309;SDS011;36207;51.850;21.698;2023-07-31T09:02:57;4.20;;;2.90;;
50309;SDS011;36207;51.850;21.698;2023-07-31T09:05:30;5.00;;;3.00;;
50309;SDS011;36207;51.850;21.698;2023-07-31T09:07:57;9.60;;;3.50;;
50309;SDS011;36207;51.850;21.698;2023-07-31T09:10:24;5.40;;;3.10;;
50309;SDS011;36207;51.850;21.698;2023-07-31T09:12:53;5.30;;;2.90;;
50309;SDS011;36207;51.850;21.698;2023-07-31T09:15:20;4.00;;;3.00;;
50309;SDS011;36207;51.850;21.698;2023-07-31T09:17:50;5.60;;;3.20;;
50309;SDS011;36207;51.850;21.698;2023-07-31T09:20:25;11.30;;;3.50;;
50309;SDS011;36207;51.850;21.698;2023-07-31T09:22:52;6.00;;;3.00;;
50309;SDS011;36207;51.850;21.698;2023-07-31T09:25:19;8.30;;;3.00;;
50309;SDS011;36207;51.850;21.698;2023-07-31T09:28:10;6.70;;;3.00;;
50309;SDS011;36207;51.850;21.698;2023-07-31T09:30:44;4.00;;;3.10;;
50309;SDS011;36207;51.850;21.698;2023-07-31T09:33:10;6.90;;;2.90;;
50309;SDS011;36207;51.850;21.698;2023-07-31T09:35:36;8.30;;;3.20;;
50309;SDS011;36207;51.850;21.698;2023-07-31T09:38:10;7.90;;;3.40;;
50309;SDS011;36207;51.850;21.698;2023-07-31T09:40:38;4.20;;;2.90;;
50309;SDS011;36207;51.850;21.698;2023-07-31T09:43:07;5.80;;;3.50;;
50309;SDS011;36207;51.850;21.698;2023-07-31T09:45:42;4.60;;;3.20;;
50309;SDS011;36207;51.850;21.698;2023-07-31T09:48:14;5.70;;;3.00;;
50309;SDS011;36207;51.850;21.698;2023-07-31T09:50:48;7.10;;;2.80;;
50309;SDS011;36207;51.850;21.698;2023-07-31T09:53:17;5.10;;;2.80;;
50309;SDS011;36207;51.850;21.698;2023-07-31T09:55:44;5.30;;;2.60;;
50309;SDS011;36207;51.850;21.698;2023-07-31T09:58:10;6.80;;;3.00;;
50309;SDS011;36207;51.850;21.698;2023-07-31T10:00:38;6.10;;;3.00;;
50309;SDS011;36207;51.850;21.698;2023-07-31T10:03:05;4.90;;;3.00;;
50309;SDS011;36207;51.850;21.698;2023-07-31T10:05:52;6.70;;;3.20;;
50309;SDS011;36207;51.850;21.698;2023-07-31T10:08:21;7.30;;;3.00;;
50309;SDS011;36207;51.850;21.698;2023-07-31T10:10:55;4.60;;;3.20;;
50309;SDS011;36207;51.850;21.698;2023-07-31T10:13:24;7.50;;;2.80;;
50309;SDS011;36207;51.850;21.698;2023-07-31T10:15:53;5.00;;;3.20;;
50309;SDS011;36207;51.850;21.698;2023-07-31T10:18:20;8.30;;;3.40;;
50309;SDS011;36207;51.850;21.698;2023-07-31T10:20:46;4.70;;;2.70;;
50309;SDS011;36207;51.850;21.698;2023-07-31T10:23:13;5.20;;;3.30;;
50309;SDS011;36207;51.850;21.698;2023-07-31T10:25:41;5.90;;;3.10;;
50309;SDS011;36207;51.850;21.698;2023-07-31T10:28:08;4.80;;;3.00;;
50309;SDS011;36207;51.850;21.698;2023-07-31T10:30:35;6.20;;;2.80;;
50309;SDS011;36207;51.850;21.698;2023-07-31T10:33:03;5.60;;;2.80;;
50309;SDS011;36207;51.850;21.698;2023-07-31T10:35:31;4.90;;;2.70;;
50309;SDS011;36207;51.850;21.698;2023-07-31T10:38:08;5.00;;;2.80;;
50309;SDS011;36207;51.850;21.698;2023-07-31T10:40:38;6.90;;;2.80;;
50309;SDS011;36207;51.850;21.698;2023-07-31T10:43:05;6.00;;;3.00;;
50309;SDS011;36207;51.850;21.698;2023-07-31T10:45:34;7.70;;;2.80;;
50309;SDS011;36207;51.850;21.698;2023-07-31T10:48:03;4.80;;;2.80;;
50309;SDS011;36207;51.850;21.698;2023-07-31T10:50:31;4.90;;;2.90;;
50309;SDS011;36207;51.850;21.698;2023-07-31T10:52:59;4.40;;;2.80;;
50309;SDS011;36207;51.850;21.698;2023-07-31T10:57:54;7.20;;;3.30;;
50309;SDS011;36207;51.850;21.698;2023-07-31T11:00:26;6.00;;;3.30;;
50309;SDS011;36207;51.850;21.698;2023-07-31T11:03:01;8.50;;;3.60;;
50309;SDS011;36207;51.850;21.698;2023-07-31T11:08:17;4.40;;;3.00;;
50309;SDS011;36207;51.850;21.698;2023-07-31T11:13:29;7.00;;;3.00;;
50309;SDS011;36207;51.850;21.698;2023-07-31T11:15:56;6.20;;;2.90;;
50309;SDS011;36207;51.850;21.698;2023-07-31T11:18:23;4.90;;;3.00;;
50309;SDS011;36207;51.850;21.698;2023-07-31T11:20:50;5.60;;;2.90;;
50309;SDS011;36207;51.850;21.698;2023-07-31T11:23:16;3.90;;;2.90;;
50309;SDS011;36207;51.850;21.698;2023-07-31T11:25:43;4.50;;;2.80;;
50309;SDS011;36207;51.850;21.698;2023-07-31T11:28:11;6.80;;;3.10;;
50309;SDS011;36207;51.850;21.698;2023-07-31T11:30:38;5.40;;;3.10;;
50309;SDS011;36207;51.850;21.698;2023-07-31T11:33:09;5.70;;;3.50;;
50309;SDS011;36207;51.850;21.698;2023-07-31T11:35:43;6.00;;;3.50;;
50309;SDS011;36207;51.850;21.698;2023-07-31T11:38:11;5.70;;;3.20;;
50309;SDS011;36207;51.850;21.698;2023-07-31T11:40:42;6.90;;;3.10;;
50309;SDS011;36207;51.850;21.698;2023-07-31T11:43:08;7.20;;;3.00;;
50309;SDS011;36207;51.850;21.698;2023-07-31T11:45:37;7.80;;;3.00;;
50309;SDS011;36207;51.850;21.698;2023-07-31T11:48:05;5.70;;;3.10;;
50309;SDS011;36207;51.850;21.698;2023-07-31T11:50:32;5.00;;;2.80;;
50309;SDS011;36207;51.850;21.698;2023-07-31T11:53:00;6.00;;;2.70;;
50309;SDS011;36207;51.850;21.698;2023-07-31T11:55:32;4.70;;;2.40;;
50309;SDS011;36207;51.850;21.698;2023-07-31T11:57:59;6.50;;;2.60;;
50309;SDS011;36207;51.850;21.698;2023-07-31T12:00:26;5.60;;;2.50;;
50309;SDS011;36207;51.850;21.698;2023-07-31T12:02:53;3.30;;;2.20;;
50309;SDS011;36207;51.850;21.698;2023-07-31T12:05:19;4.80;;;2.50;;
50309;SDS011;36207;51.850;21.698;2023-07-31T12:07:52;4.30;;;2.50;;
50309;SDS011;36207;51.850;21.698;2023-07-31T12:12:55;6.10;;;2.50;;
50309;SDS011;36207;51.850;21.698;2023-07-31T12:15:36;4.50;;;2.60;;
50309;SDS011;36207;51.850;21.698;2023-07-31T12:18:04;5.90;;;2.50;;
50309;SDS011;36207;51.850;21.698;2023-07-31T12:20:32;6.20;;;2.90;;
50309;SDS011;36207;51.850;21.698;2023-07-31T12:22:59;4.00;;;2.60;;
50309;SDS011;36207;51.850;21.698;2023-07-31T12:25:29;5.60;;;2.50;;
50309;SDS011;36207;51.850;21.698;2023-07-31T12:27:57;5.40;;;2.30;;
50309;SDS011;36207;51.850;21.698;2023-07-31T12:30:34;16.50;;;3.00;;
50309;SDS011;36207;51.850;21.698;2023-07-31T12:33:04;7.40;;;2.60;;
50309;SDS011;36207;51.850;21.698;2023-07-31T12:35:40;4.70;;;2.60;;
50309;SDS011;36207;51.850;21.698;2023-07-31T12:38:08;6.40;;;2.60;;
50309;SDS011;36207;51.850;21.698;2023-07-31T12:40:38;5.00;;;2.50;;
50309;SDS011;36207;51.850;21.698;2023-07-31T12:43:05;4.60;;;2.80;;
50309;SDS011;36207;51.850;21.698;2023-07-31T12:45:32;6.60;;;2.60;;
50309;SDS011;36207;51.850;21.698;2023-07-31T12:47:59;4.50;;;2.20;;
50309;SDS011;36207;51.850;21.698;2023-07-31T12:50:25;5.50;;;2.60;;
50309;SDS011;36207;51.850;21.698;2023-07-31T12:52:56;4.90;;;2.40;;
50309;SDS011;36207;51.850;21.698;2023-07-31T12:55:22;4.10;;;2.40;;
50309;SDS011;36207;51.850;21.698;2023-07-31T12:57:49;5.30;;;2.90;;
50309;SDS011;36207;51.850;21.698;2023-07-31T13:00:16;4.20;;;2.40;;
50309;SDS011;36207;51.850;21.698;2023-07-31T13:02:42;4.70;;;2.60;;
50309;SDS011;36207;51.850;21.698;2023-07-31T13:05:08;3.40;;;2.30;;
50309;SDS011;36207;51.850;21.698;2023-07-31T13:07:34;7.00;;;2.10;;
50309;SDS011;36207;51.850;21.698;2023-07-31T13:10:00;3.90;;;2.30;;
50309;SDS011;36207;51.850;21.698;2023-07-31T13:12:27;3.40;;;2.30;;
50309;SDS011;36207;51.850;21.698;2023-07-31T13:14:53;4.20;;;2.40;;
50309;SDS011;36207;51.850;21.698;2023-07-31T13:17:19;3.70;;;2.10;;
50309;SDS011;36207;51.850;21.698;2023-07-31T13:19:45;4.40;;;2.50;;
50309;SDS011;36207;51.850;21.698;2023-07-31T13:22:11;3.20;;;2.40;;
50309;SDS011;36207;51.850;21.698;2023-07-31T13:24:37;5.30;;;2.50;;
50309;SDS011;36207;51.850;21.698;2023-07-31T13:27:03;5.30;;;2.50;;
50309;SDS011;36207;51.850;21.698;2023-07-31T13:29:30;8.10;;;2.60;;
50309;SDS011;36207;51.850;21.698;2023-07-31T13:31:56;4.30;;;2.20;;
50309;SDS011;36207;51.850;21.698;2023-07-31T13:34:22;3.30;;;2.40;;
50309;SDS011;36207;51.850;21.698;2023-07-31T13:36:48;4.50;;;2.50;;
50309;SDS011;36207;51.850;21.698;2023-07-31T13:39:14;4.80;;;2.40;;
50309;SDS011;36207;51.850;21.698;2023-07-31T13:41:40;6.10;;;2.70;;
50309;SDS011;36207;51.850;21.698;2023-07-31T13:44:07;4.00;;;2.10;;
50309;SDS011;36207;51.850;21.698;2023-07-31T13:46:33;7.50;;;2.40;;
50309;SDS011;36207;51.850;21.698;2023-07-31T13:48:59;5.30;;;2.10;;
50309;SDS011;36207;51.850;21.698;2023-07-31T13:51:27;7.60;;;2.80;;
50309;SDS011;36207;51.850;21.698;2023-07-31T13:53:54;6.10;;;2.30;;
50309;SDS011;36207;51.850;21.698;2023-07-31T13:56:20;7.10;;;2.70;;
50309;SDS011;36207;51.850;21.698;2023-07-31T13:58:46;4.90;;;2.60;;
50309;SDS011;36207;51.850;21.698;2023-07-31T14:01:12;3.60;;;2.40;;
50309;SDS011;36207;51.850;21.698;2023-07-31T14:03:38;4.90;;;2.40;;
50309;SDS011;36207;51.850;21.698;2023-07-31T14:06:04;6.00;;;2.40;;
50309;SDS011;36207;51.850;21.698;2023-07-31T14:08:30;3.10;;;2.10;;
50309;SDS011;36207;51.850;21.698;2023-07-31T14:10:56;3.10;;;2.40;;
50309;SDS011;36207;51.850;21.698;2023-07-31T14:13:22;4.10;;;2.30;;
50309;SDS011;36207;51.850;21.698;2023-07-31T14:15:48;9.10;;;2.40;;
50309;SDS011;36207;51.850;21.698;2023-07-31T14:18:14;4.30;;;2.20;;
50309;SDS011;36207;51.850;21.698;2023-07-31T14:20:41;4.70;;;2.60;;
50309;SDS011;36207;51.850;21.698;2023-07-31T14:23:07;3.60;;;2.30;;
50309;SDS011;36207;51.850;21.698;2023-07-31T14:25:33;4.50;;;2.60;;
50309;SDS011;36207;51.850;21.698;2023-07-31T14:27:59;5.90;;;2.40;;
50309;SDS011;36207;51.850;21.698;2023-07-31T14:30:25;7.70;;;2.90;;
50309;SDS011;36207;51.850;21.698;2023-07-31T14:32:51;6.80;;;2.40;;
50309;SDS011;36207;51.850;21.698;2023-07-31T14:35:17;4.80;;;2.20;;
50309;SDS011;36207;51.850;21.698;2023-07-31T14:37:44;4.50;;;2.60;;
50309;SDS011;36207;51.850;21.698;2023-07-31T14:40:11;4.10;;;2.60;;
50309;SDS011;36207;51.850;21.698;2023-07-31T14:42:38;5.40;;;2.20;;
50309;SDS011;36207;51.850;21.698;2023-07-31T14:45:05;3.10;;;2.10;;
50309;SDS011;36207;51.850;21.698;2023-07-31T14:47:32;6.10;;;2.40;;
50309;SDS011;36207;51.850;21.698;2023-07-31T14:49:59;3.70;;;2.20;;
50309;SDS011;36207;51.850;21.698;2023-07-31T14:52:26;4.40;;;2.40;;
50309;SDS011;36207;51.850;21.698;2023-07-31T14:54:52;5.00;;;2.40;;